Time;durP1;ratioP1;P1;durP2;ratioP2;P2;SDS_P1;SDS_P2;PMS_P1;PMS_P2;Temp;Humidity;BMP_temperature;BMP_pressure;BME280_temperature;BME280_humidity;BME280_pressure;Samples;Min_cycle;Max_cycle;Signal;HPM_P1;HPM_P2
2023/08/10 00:00:25;;;;;;;5;3;;;;;;;;;;;;;
2023/08/10 00:02:48;;;;;;;4.5;2.9;;;;;;;;;;;;;
2023/08/10 00:05:15;;;;;;;4.2;2.7;;;;;;;;;;;;;
2023/08/10 00:07:41;;;;;;;7.8;4.4;;;;;;;;;;;;;
2023/08/10 00:10:08;;;;;;;8.1;2.9;;;;;;;;;;;;;
2023/08/10 00:12:32;;;;;;;4.5;2.7;;;;;;;;;;;;;
2023/08/10 00:14:57;;;;;;;4.5;3.3;;;;;;;;;;;;;
2023/08/10 00:17:23;;;;;;;5.5;3.6;;;;;;;;;;;;;
2023/08/10 00:19:49;;;;;;;5.9;3.3;;;;;;;;;;;;;
2023/08/10 00:22:14;;;;;;;3.5;2.7;;;;;;;;;;;;;
2023/08/10 00:24:40;;;;;;;3.4;2.7;;;;;;;;;;;;;
2023/08/10 00:27:05;;;;;;;4;2.6;;;;;;;;;;;;;
2023/08/10 00:29:31;;;;;;;4;2.6;;;;;;;;;;;;;
2023/08/10 00:31:56;;;;;;;3;2.7;;;;;;;;;;;;;
2023/08/10 00:34:22;;;;;;;5.2;3.2;;;;;;;;;;;;;
2023/08/10 00:36:47;;;;;;;4.1;2.8;;;;;;;;;;;;;
2023/08/10 00:39:14;;;;;;;3.8;2.5;;;;;;;;;;;;;
2023/08/10 00:41:41;;;;;;;11.1;3;;;;;;;;;;;;;
2023/08/10 00:44:05;;;;;;;4.5;2.5;;;;;;;;;;;;;
2023/08/10 00:46:30;;;;;;;7.2;2.5;;;;;;;;;;;;;
2023/08/10 00:48:56;;;;;;;8;2.9;;;;;;;;;;;;;
2023/08/10 00:51:21;;;;;;;5.7;2.5;;;;;;;;;;;;;
2023/08/10 00:53:49;;;;;;;4.3;2.6;;;;;;;;;;;;;
2023/08/10 00:56:14;;;;;;;5.8;2.8;;;;;;;;;;;;;
2023/08/10 00:58:40;;;;;;;5.1;3.3;;;;;;;;;;;;;
2023/08/10 01:01:05;;;;;;;3.6;2.7;;;;;;;;;;;;;
2023/08/10 01:03:31;;;;;;;9.9;3.1;;;;;;;;;;;;;
2023/08/10 01:05:57;;;;;;;3.2;2.7;;;;;;;;;;;;;
2023/08/10 01:08:22;;;;;;;9.3;3.5;;;;;;;;;;;;;
2023/08/10 01:10:46;;;;;;;7.2;2.9;;;;;;;;;;;;;
2023/08/10 01:13:12;;;;;;;3.6;2.9;;;;;;;;;;;;;
2023/08/10 01:15:40;;;;;;;4.4;3;;;;;;;;;;;;;
2023/08/10 01:18:05;;;;;;;5.8;2.9;;;;;;;;;;;;;
2023/08/10 01:20:31;;;;;;;4.2;2.7;;;;;;;;;;;;;
2023/08/10 01:22:56;;;;;;;3.8;2.6;;;;;;;;;;;;;
2023/08/10 01:25:21;;;;;;;4.8;2.6;;;;;;;;;;;;;
2023/08/10 01:27:47;;;;;;;5.8;2.6;;;;;;;;;;;;;
2023/08/10 01:30:12;;;;;;;5.4;3.1;;;;;;;;;;;;;
2023/08/10 01:32:39;;;;;;;7.3;3.5;;;;;;;;;;;;;
2023/08/10 01:35:06;;;;;;;9.5;4.1;;;;;;;;;;;;;
2023/08/10 01:37:32;;;;;;;6.2;3.3;;;;;;;;;;;;;
2023/08/10 01:39:57;;;;;;;7.4;3.1;;;;;;;;;;;;;
2023/08/10 01:42:23;;;;;;;5.1;2.8;;;;;;;;;;;;;
2023/08/10 01:44:48;;;;;;;5;2.9;;;;;;;;;;;;;
2023/08/10 01:47:14;;;;;;;4.7;2.9;;;;;;;;;;;;;
2023/08/10 01:49:38;;;;;;;7.5;3.2;;;;;;;;;;;;;
2023/08/10 01:52:03;;;;;;;3.7;3;;;;;;;;;;;;;
2023/08/10 01:54:31;;;;;;;3.2;2.8;;;;;;;;;;;;;
2023/08/10 01:56:56;;;;;;;4.6;3;;;;;;;;;;;;;
2023/08/10 01:59:22;;;;;;;4.5;3.1;;;;;;;;;;;;;
2023/08/10 02:01:47;;;;;;;5.2;2.9;;;;;;;;;;;;;
2023/08/10 02:04:13;;;;;;;8.1;3.2;;;;;;;;;;;;;
2023/08/10 02:06:40;;;;;;;4.1;2.8;;;;;;;;;;;;;
2023/08/10 02:09:06;;;;;;;4.7;3;;;;;;;;;;;;;
2023/08/10 02:11:30;;;;;;;3.5;2.8;;;;;;;;;;;;;
2023/08/10 02:13:56;;;;;;;4.2;2.8;;;;;;;;;;;;;
2023/08/10 02:16:22;;;;;;;7.8;3.3;;;;;;;;;;;;;
2023/08/10 02:18:50;;;;;;;6.3;3.1;;;;;;;;;;;;;
2023/08/10 02:21:15;;;;;;;19.8;3.7;;;;;;;;;;;;;
2023/08/10 02:23:41;;;;;;;4.2;2.8;;;;;;;;;;;;;
2023/08/10 02:26:06;;;;;;;5.8;2.9;;;;;;;;;;;;;
2023/08/10 02:28:31;;;;;;;8;3.4;;;;;;;;;;;;;
2023/08/10 02:30:56;;;;;;;11.1;3.3;;;;;;;;;;;;;
2023/08/10 02:33:22;;;;;;;5;2.9;;;;;;;;;;;;;
2023/08/10 02:35:47;;;;;;;8.4;4.4;;;;;;;;;;;;;
2023/08/10 02:38:13;;;;;;;5.7;3.2;;;;;;;;;;;;;
2023/08/10 02:40:38;;;;;;;5.4;2.8;;;;;;;;;;;;;
2023/08/10 02:43:05;;;;;;;2.8;2.2;;;;;;;;;;;;;
2023/08/10 02:45:30;;;;;;;2.2;2;;;;;;;;;;;;;
2023/08/10 02:47:55;;;;;;;2.5;2.3;;;;;;;;;;;;;
2023/08/10 02:50:20;;;;;;;3.2;2.6;;;;;;;;;;;;;
2023/08/10 02:52:45;;;;;;;2.8;2.1;;;;;;;;;;;;;
2023/08/10 02:55:11;;;;;;;2.9;2.4;;;;;;;;;;;;;
2023/08/10 02:57:37;;;;;;;4.1;2.3;;;;;;;;;;;;;
2023/08/10 03:00:06;;;;;;;2.7;2.1;;;;;;;;;;;;;
2023/08/10 03:02:28;;;;;;;2.6;2.3;;;;;;;;;;;;;
2023/08/10 03:04:53;;;;;;;2.6;2;;;;;;;;;;;;;
2023/08/10 03:07:18;;;;;;;3;2;;;;;;;;;;;;;
2023/08/10 03:09:44;;;;;;;2.3;2.1;;;;;;;;;;;;;
2023/08/10 03:12:09;;;;;;;2.5;2.1;;;;;;;;;;;;;
2023/08/10 03:14:36;;;;;;;2.6;2;;;;;;;;;;;;;
2023/08/10 03:17:01;;;;;;;3;2.3;;;;;;;;;;;;;
2023/08/10 03:19:28;;;;;;;3.7;2.7;;;;;;;;;;;;;
2023/08/10 03:21:53;;;;;;;2.5;2.1;;;;;;;;;;;;;
2023/08/10 03:24:20;;;;;;;2.8;2;;;;;;;;;;;;;
2023/08/10 03:26:45;;;;;;;2.4;1.9;;;;;;;;;;;;;
2023/08/10 03:29:10;;;;;;;4.7;2.2;;;;;;;;;;;;;
2023/08/10 03:31:35;;;;;;;2.6;2.3;;;;;;;;;;;;;
2023/08/10 03:34:01;;;;;;;2.6;2.3;;;;;;;;;;;;;
2023/08/10 03:36:26;;;;;;;3.1;2.5;;;;;;;;;;;;;
2023/08/10 03:38:55;;;;;;;5.4;3;;;;;;;;;;;;;
2023/08/10 03:41:20;;;;;;;2.5;2.3;;;;;;;;;;;;;
2023/08/10 03:43:46;;;;;;;3.5;2.4;;;;;;;;;;;;;
2023/08/10 03:46:11;;;;;;;3;2.2;;;;;;;;;;;;;
2023/08/10 03:48:36;;;;;;;3.6;2.4;;;;;;;;;;;;;
2023/08/10 03:51:01;;;;;;;2.7;2.3;;;;;;;;;;;;;
2023/08/10 03:53:27;;;;;;;2.8;2.5;;;;;;;;;;;;;
2023/08/10 03:55:52;;;;;;;4;2.8;;;;;;;;;;;;;
2023/08/10 03:58:19;;;;;;;3;2.5;;;;;;;;;;;;;
2023/08/10 04:02:32;;;;;;;4.1;2.9;;;;;;;14.61;100;941.9394;;;;
2023/08/10 04:04:58;;;;;;;2.9;2.3;;;;;;;14.71;100;941.8828;;;;
2023/08/10 04:07:22;;;;;;;3.1;2.2;;;;;;;14.58;100;942.0003;;;;
2023/08/10 04:09:52;;;;;;;4.1;2.7;;;;;;;14.62;100;941.9863;;;;
2023/08/10 04:12:21;;;;;;;2.5;2.2;;;;;;;14.65;100;942.0198;;;;
2023/08/10 04:14:46;;;;;;;3.2;2.8;;;;;;;14.7;100;942.0327;;;;
2023/08/10 04:17:14;;;;;;;2.8;2.5;;;;;;;14.71;100;942.0055;;;;
2023/08/10 04:19:39;;;;;;;3;2.3;;;;;;;14.8;100;941.9396;;;;
2023/08/10 04:22:06;;;;;;;4.1;2.6;;;;;;;14.87;100;941.976;;;;
2023/08/10 04:24:31;;;;;;;2.8;2.4;;;;;;;14.95;100;942.0143;;;;
2023/08/10 04:26:56;;;;;;;4.2;2.7;;;;;;;14.82;99.58008;942.024;;;;
2023/08/10 04:29:26;;;;;;;3.1;2.8;;;;;;;14.56;100;942.1125;;;;
2023/08/10 04:31:48;;;;;;;4.9;2.6;;;;;;;14.36;100;942.1663;;;;
2023/08/10 04:34:15;;;;;;;3.3;2.7;;;;;;;14.53;100;942.1021;;;;
2023/08/10 04:36:40;;;;;;;4.4;2.5;;;;;;;14.45;100;942.0973;;;;
2023/08/10 04:39:07;;;;;;;3.6;2.4;;;;;;;14.61;100;942.1326;;;;
2023/08/10 04:41:31;;;;;;;4.3;2.6;;;;;;;14.66;100;942.0928;;;;
2023/08/10 04:43:58;;;;;;;3;2.5;;;;;;;14.76;99.6123;942.1353;;;;
2023/08/10 04:46:23;;;;;;;3.4;2.7;;;;;;;14.76;99.42773;942.1232;;;;
2023/08/10 04:48:52;;;;;;;3.3;2.6;;;;;;;14.82;98.91113;942.1395;;;;
2023/08/10 04:51:17;;;;;;;3.4;2.5;;;;;;;14.91;99.02441;942.0793;;;;
2023/08/10 04:53:44;;;;;;;3.3;2.2;;;;;;;14.85;98.51172;942.1451;;;;
2023/08/10 04:56:09;;;;;;;4;2.5;;;;;;;14.87;97.9873;942.1251;;;;
2023/08/10 04:58:36;;;;;;;4.6;2.9;;;;;;;14.77;97.98828;942.1674;;;;
2023/08/10 05:01:02;;;;;;;3.8;3.2;;;;;;;14.77;98.27637;942.2371;;;;
2023/08/10 05:03:28;;;;;;;4.7;3.4;;;;;;;14.92;97.55957;942.2606;;;;
2023/08/10 05:05:53;;;;;;;6;4.2;;;;;;;14.9;97.49805;942.3239;;;;
2023/08/10 05:08:24;;;;;;;4.3;3.8;;;;;;;15.02;96.92383;942.247;;;;
2023/08/10 05:10:49;;;;;;;6.6;3.8;;;;;;;14.81;97.74512;942.2547;;;;
2023/08/10 05:13:15;;;;;;;6;3.8;;;;;;;14.72;98.40234;942.2595;;;;
2023/08/10 05:15:40;;;;;;;6.6;3.4;;;;;;;14.85;98.13379;942.2237;;;;
2023/08/10 05:18:08;;;;;;;5.2;3;;;;;;;14.94;98.67285;942.2525;;;;
2023/08/10 05:20:33;;;;;;;3.3;2.3;;;;;;;15.01;98.69824;942.2131;;;;
2023/08/10 05:22:58;;;;;;;3.2;2.4;;;;;;;15.12;98.00977;942.2798;;;;
2023/08/10 05:25:23;;;;;;;4.4;3;;;;;;;15.18;98.0332;942.2757;;;;
2023/08/10 05:27:51;;;;;;;4.2;2.7;;;;;;;15.21;96.91016;942.2772;;;;
2023/08/10 05:30:16;;;;;;;2.5;2.1;;;;;;;15.06;96.40332;942.259;;;;
2023/08/10 05:32:43;;;;;;;3.6;2.3;;;;;;;15.12;97.0752;942.295;;;;
2023/08/10 05:35:07;;;;;;;3.2;2.6;;;;;;;15.16;96.84082;942.3191;;;;
2023/08/10 05:37:33;;;;;;;3.6;2.4;;;;;;;15.21;96.45117;942.2756;;;;
2023/08/10 05:39:58;;;;;;;4.5;2.2;;;;;;;15.33;95.8877;942.3487;;;;
2023/08/10 05:42:23;;;;;;;3.1;2.1;;;;;;;15.39;94.9873;942.3887;;;;
2023/08/10 05:44:49;;;;;;;3.6;2.3;;;;;;;15.29;95.21973;942.3953;;;;
2023/08/10 05:47:14;;;;;;;2.6;2.2;;;;;;;15.15;95.79102;942.4394;;;;
2023/08/10 05:49:40;;;;;;;3.7;2.4;;;;;;;15.29;95.33496;942.4627;;;;
2023/08/10 05:52:06;;;;;;;3.6;2.2;;;;;;;15.47;94.73926;942.4658;;;;
2023/08/10 05:54:33;;;;;;;4;2.7;;;;;;;15.72;94.9541;942.46;;;;
2023/08/10 05:56:59;;;;;;;5.2;3.6;;;;;;;15.89;93.10547;942.4372;;;;
2023/08/10 05:59:26;;;;;;;2.7;2.3;;;;;;;15.91;91.81836;942.4813;;;;
2023/08/10 06:01:51;;;;;;;3.2;2.2;;;;;;;15.84;91.85938;942.4414;;;;
2023/08/10 06:04:18;;;;;;;3.1;2.1;;;;;;;15.88;92.48145;942.3842;;;;
2023/08/10 06:06:44;;;;;;;3.7;2.3;;;;;;;16.05;92.0918;942.4062;;;;
2023/08/10 06:09:11;;;;;;;2.9;2.3;;;;;;;16;92.25391;942.4334;;;;
2023/08/10 06:11:35;;;;;;;2.7;2.4;;;;;;;16.17;92.3457;942.4272;;;;
2023/08/10 06:14:02;;;;;;;4.4;3.3;;;;;;;16.44;91.16406;942.4777;;;;
2023/08/10 06:16:27;;;;;;;2.9;2.4;;;;;;;16.68;90.69238;942.4558;;;;
2023/08/10 06:18:55;;;;;;;4.8;2.5;;;;;;;17.34;89.63379;942.4075;;;;
2023/08/10 06:21:20;;;;;;;2.5;2.2;;;;;;;18.03;83.24805;942.3931;;;;
2023/08/10 06:23:47;;;;;;;2.8;2.1;;;;;;;18.59;79.89941;942.3505;;;;
2023/08/10 06:26:13;;;;;;;2.7;2;;;;;;;18.88;78.32324;942.2841;;;;
2023/08/10 06:28:40;;;;;;;2.8;2.2;;;;;;;19.56;75.68066;942.2587;;;;
2023/08/10 06:31:05;;;;;;;3.9;2.3;;;;;;;19.35;75.67969;942.2855;;;;
2023/08/10 06:33:31;;;;;;;3.2;2;;;;;;;19.43;75.93848;942.2803;;;;
2023/08/10 06:35:56;;;;;;;3.7;2.1;;;;;;;20.29;72.51367;942.3455;;;;
2023/08/10 06:38:25;;;;;;;2.3;2.1;;;;;;;22.11;66.89258;942.3456;;;;
2023/08/10 06:40:48;;;;;;;3;2.3;;;;;;;22.81;61.82031;942.3141;;;;
2023/08/10 06:43:18;;;;;;;3.3;2.1;;;;;;;24;59.57227;942.291;;;;
2023/08/10 06:45:43;;;;;;;2.5;2.1;;;;;;;24.99;55.54004;942.3237;;;;
2023/08/10 06:48:08;;;;;;;3;2.3;;;;;;;25.89;53.86621;942.3005;;;;
2023/08/10 06:50:38;;;;;;;2.3;2;;;;;;;26.42;51.125;942.2809;;;;
2023/08/10 06:56:36;;;;;;;3.2;2.4;;;;;;;24.66;56.18164;942.2662;;;;
2023/08/10 06:59:02;;;;;;;2.6;2;;;;;;;23.92;56.3252;942.2214;;;;
2023/08/10 07:01:30;;;;;;;3.1;2.3;;;;;;;22.75;59.61621;942.2299;;;;
2023/08/10 07:03:54;;;;;;;2.8;2.4;;;;;;;23.55;57.74707;942.22;;;;
2023/08/10 07:06:23;;;;;;;2.8;2.5;;;;;;;22.52;60.87598;942.2726;;;;
2023/08/10 07:08:52;;;;;;;4.3;2.6;;;;;;;22.77;59.6543;942.2555;;;;
2023/08/10 07:11:13;;;;;;;4.3;2.6;;;;;;;23.12;59.92285;942.2167;;;;
2023/08/10 07:13:42;;;;;;;3.8;2.4;;;;;;;22.7;60.50195;942.2241;;;;
2023/08/10 07:16:06;;;;;;;3.7;2.5;;;;;;;22.05;62.46387;942.2639;;;;
2023/08/10 07:18:38;;;;;;;2.7;2.4;;;;;;;21.89;63.5791;942.275;;;;
2023/08/10 07:21:06;;;;;;;3.9;2.6;;;;;;;21.92;64.33301;942.3098;;;;
2023/08/10 07:23:31;;;;;;;3.9;2.6;;;;;;;21.25;65.67676;942.3697;;;;
2023/08/10 07:25:59;;;;;;;4.2;2.6;;;;;;;21.36;65.93652;942.3442;;;;
2023/08/10 07:28:25;;;;;;;3.8;2.6;;;;;;;21.27;66.33301;942.3716;;;;
2023/08/10 07:30:50;;;;;;;4.7;2.9;;;;;;;20.84;67.06445;942.3674;;;;
2023/08/10 07:33:16;;;;;;;3.3;2.5;;;;;;;21.79;65.56836;942.3091;;;;
2023/08/10 07:35:43;;;;;;;2.6;2.2;;;;;;;22.6;61.12305;942.343;;;;
2023/08/10 07:38:08;;;;;;;4.5;2.9;;;;;;;22.8;60.62207;942.3867;;;;
2023/08/10 07:40:34;;;;;;;3.9;2.6;;;;;;;22.67;61.31934;942.3696;;;;
2023/08/10 07:42:59;;;;;;;3.6;2.3;;;;;;;22.42;62.05859;942.4043;;;;
2023/08/10 07:45:25;;;;;;;2.7;2.2;;;;;;;21.76;66.21875;942.4584;;;;
2023/08/10 07:47:51;;;;;;;5.4;2.7;;;;;;;21.47;65.33301;942.4633;;;;
2023/08/10 07:50:20;;;;;;;4.2;2.4;;;;;;;21.2;66.27539;942.4766;;;;
2023/08/10 07:52:45;;;;;;;2.7;2.4;;;;;;;21.11;68.64844;942.4601;;;;
2023/08/10 07:55:15;;;;;;;4.9;3;;;;;;;20.53;71.32715;942.5302;;;;
2023/08/10 07:57:46;;;;;;;4.3;2.8;;;;;;;20.62;69.62402;942.5233;;;;
2023/08/10 08:00:14;;;;;;;2.8;2.4;;;;;;;20.72;69.52246;942.4622;;;;
2023/08/10 08:02:58;;;;;;;4.5;2.9;;;;;;;20.67;70.09961;942.5566;;;;
2023/08/10 08:05:22;;;;;;;6;2.3;;;;;;;21.04;68.57813;942.5753;;;;
2023/08/10 08:07:52;;;;;;;4.9;2.8;;;;;;;21.12;66.89453;942.5555;;;;
2023/08/10 08:10:21;;;;;;;3.1;2.3;;;;;;;20.75;69.37695;942.5627;;;;
2023/08/10 08:12:46;;;;;;;4.7;2.6;;;;;;;20.78;68.95996;942.5118;;;;
2023/08/10 08:15:17;;;;;;;4;2.6;;;;;;;20.94;68.36426;942.5255;;;;
2023/08/10 08:17:48;;;;;;;3.3;2.8;;;;;;;21.25;66.93848;942.5884;;;;
2023/08/10 08:20:13;;;;;;;2.3;2.1;;;;;;;20.99;69.58887;942.5817;;;;
2023/08/10 08:22:45;;;;;;;4.2;2.9;;;;;;;20.88;69.94629;942.5267;;;;
2023/08/10 08:25:17;;;;;;;3.6;2.8;;;;;;;20.59;72.5625;942.6325;;;;
2023/08/10 08:27:47;;;;;;;4;3.3;;;;;;;21.11;69.20996;942.5444;;;;
2023/08/10 08:30:16;;;;;;;2.9;2.3;;;;;;;21.16;69.24121;942.5892;;;;
2023/08/10 08:32:41;;;;;;;4.4;2.6;;;;;;;21.52;66.61523;942.5342;;;;
2023/08/10 08:35:38;;;;;;;6.4;2.8;;;;;;;21.55;66.9834;942.5983;;;;
2023/08/10 08:38:04;;;;;;;3.6;2.4;;;;;;;21.62;66.38477;942.5778;;;;
2023/08/10 08:40:28;;;;;;;3.6;2.6;;;;;;;21.7;65.63672;942.558;;;;
2023/08/10 08:42:54;;;;;;;3;2.5;;;;;;;21.52;68.8291;942.5105;;;;
2023/08/10 08:45:21;;;;;;;3.1;2.8;;;;;;;20.79;71.9082;942.5424;;;;
2023/08/10 08:47:46;;;;;;;3.9;2.5;;;;;;;20.5;73.09668;942.5956;;;;
2023/08/10 08:50:13;;;;;;;4.3;2.5;;;;;;;20.27;72.88477;942.5125;;;;
2023/08/10 08:52:38;;;;;;;2.9;2.4;;;;;;;20.41;73.84082;942.493;;;;
2023/08/10 08:55:04;;;;;;;3.3;2.7;;;;;;;19.69;74.72461;942.507;;;;
2023/08/10 08:57:29;;;;;;;4.4;2.9;;;;;;;20.24;72.36621;942.4833;;;;
2023/08/10 08:59:54;;;;;;;5.4;2.7;;;;;;;20.47;71.9707;942.5041;;;;
2023/08/10 09:02:20;;;;;;;3.3;2.6;;;;;;;20.84;72.37207;942.5513;;;;
2023/08/10 09:04:45;;;;;;;3.1;2.3;;;;;;;20.86;71.35742;942.4949;;;;
2023/08/10 09:07:11;;;;;;;3.3;2.2;;;;;;;20.63;71.55371;942.4805;;;;
2023/08/10 09:09:36;;;;;;;4.3;2.6;;;;;;;19.94;75.6543;942.4791;;;;
2023/08/10 09:12:05;;;;;;;4.4;2.2;;;;;;;20.35;74.18262;942.5198;;;;
2023/08/10 09:14:30;;;;;;;3.5;2.4;;;;;;;20.64;73.14551;942.5125;;;;
2023/08/10 09:16:58;;;;;;;2.5;2.3;;;;;;;20.39;72.6582;942.498;;;;
2023/08/10 09:19:23;;;;;;;2.4;2.2;;;;;;;20.77;74.32324;942.4878;;;;
2023/08/10 09:21:49;;;;;;;2.8;2.3;;;;;;;21.14;72.48926;942.474;;;;
2023/08/10 09:24:18;;;;;;;3;2.1;;;;;;;21.4;72.52148;942.4372;;;;
2023/08/10 09:26:51;;;;;;;2.6;2.1;;;;;;;21.68;72.68359;942.4653;;;;
2023/08/10 09:29:16;;;;;;;3.2;2.1;;;;;;;22.16;67.60449;942.4464;;;;
2023/08/10 09:31:41;;;;;;;3.2;2.2;;;;;;;22.21;66.96582;942.3915;;;;
2023/08/10 09:34:13;;;;;;;2.5;2.1;;;;;;;22.5;68.05371;942.4242;;;;
2023/08/10 09:36:32;;;;;;;3;2.3;;;;;;;22.85;64.98438;942.3469;;;;
2023/08/10 09:38:57;;;;;;;3.6;2.3;;;;;;;22.28;67.43457;942.3376;;;;
2023/08/10 09:41:22;;;;;;;3.9;2.6;;;;;;;22.26;69.16602;942.4026;;;;
2023/08/10 09:43:47;;;;;;;3.5;2.2;;;;;;;22.07;69.5;942.3729;;;;
2023/08/10 09:46:14;;;;;;;3.2;2.2;;;;;;;22.13;69.22852;942.3622;;;;
2023/08/10 09:48:38;;;;;;;2.3;1.9;;;;;;;22.31;66.07813;942.3191;;;;
2023/08/10 09:51:04;;;;;;;2.6;2.2;;;;;;;21.98;68.15137;942.3058;;;;
2023/08/10 09:53:29;;;;;;;2;1.8;;;;;;;22.25;67.05371;942.2942;;;;
2023/08/10 09:55:57;;;;;;;2.5;2.2;;;;;;;22.07;69.35938;942.3015;;;;
2023/08/10 09:58:22;;;;;;;3.2;1.8;;;;;;;22.14;67.13086;942.2297;;;;
2023/08/10 10:00:49;;;;;;;2.6;1.7;;;;;;;22.03;68.09766;942.2488;;;;
2023/08/10 10:03:14;;;;;;;3.9;2;;;;;;;22.14;69.50098;942.3293;;;;
2023/08/10 10:05:41;;;;;;;2.3;2;;;;;;;22.09;68.96289;942.3123;;;;
2023/08/10 10:08:06;;;;;;;2.3;2.1;;;;;;;22.44;66.69629;942.334;;;;
2023/08/10 10:10:32;;;;;;;3.8;2.3;;;;;;;22.24;67.26465;942.2992;;;;
2023/08/10 10:12:57;;;;;;;2.2;1.9;;;;;;;22.26;67.05664;942.3367;;;;
2023/08/10 10:15:22;;;;;;;2.2;2;;;;;;;22.3;70.35742;942.3356;;;;
2023/08/10 10:17:52;;;;;;;2.5;2.1;;;;;;;22.12;70.25879;942.3242;;;;
2023/08/10 10:20:15;;;;;;;2.6;2;;;;;;;22.84;67.16602;942.3204;;;;
2023/08/10 10:22:41;;;;;;;2.1;1.9;;;;;;;23;65.11133;942.204;;;;
2023/08/10 10:25:07;;;;;;;1.8;1.7;;;;;;;22.77;65.34863;942.2488;;;;
2023/08/10 10:27:32;;;;;;;2.7;2.1;;;;;;;22.88;67.37402;942.2346;;;;
2023/08/10 10:29:58;;;;;;;2.1;1.7;;;;;;;23.43;63.90332;942.1403;;;;
2023/08/10 10:32:22;;;;;;;2.2;2;;;;;;;23.74;61.88965;942.1635;;;;
2023/08/10 10:34:47;;;;;;;1.9;1.8;;;;;;;23.83;62.47852;942.1581;;;;
2023/08/10 10:37:12;;;;;;;2.8;1.9;;;;;;;23.78;62.99023;942.1937;;;;
2023/08/10 10:39:41;;;;;;;2.4;1.9;;;;;;;23.79;61.68555;942.1445;;;;
2023/08/10 10:42:05;;;;;;;2.3;1.6;;;;;;;23.45;65.74121;942.1274;;;;
2023/08/10 10:44:33;;;;;;;2;1.8;;;;;;;22.89;65.43555;942.1329;;;;
2023/08/10 10:47:00;;;;;;;4.1;2.1;;;;;;;22.49;68.33398;942.1622;;;;
2023/08/10 10:49:30;;;;;;;1.9;1.6;;;;;;;22.8;66.41016;942.1286;;;;
2023/08/10 10:51:57;;;;;;;2.4;1.8;;;;;;;23.34;64.44434;942.0942;;;;
2023/08/10 10:54:20;;;;;;;2.1;1.8;;;;;;;23.5;63.8916;942.1036;;;;
2023/08/10 10:56:45;;;;;;;2.5;1.9;;;;;;;23.47;66.39258;942.1086;;;;
2023/08/10 10:59:12;;;;;;;1.8;1.7;;;;;;;23.08;67.0498;942.1255;;;;
2023/08/10 11:01:37;;;;;;;2.1;1.9;;;;;;;23.44;66.02344;942.1097;;;;
2023/08/10 11:04:03;;;;;;;3.6;2;;;;;;;23.96;62.58008;942.0662;;;;
2023/08/10 11:06:28;;;;;;;2.3;1.8;;;;;;;24.3;60.77734;942.0557;;;;
2023/08/10 11:08:54;;;;;;;1.8;1.7;;;;;;;24.47;61.0957;942.0362;;;;
2023/08/10 11:11:17;;;;;;;2.2;1.9;;;;;;;24.35;61.43457;942.0168;;;;
2023/08/10 11:13:46;;;;;;;3.7;1.8;;;;;;;24.61;59.85352;942.0806;;;;
2023/08/10 11:16:12;;;;;;;2.2;1.8;;;;;;;24.49;60.09766;942.0438;;;;
2023/08/10 11:18:38;;;;;;;2.4;1.8;;;;;;;24.78;59.69922;941.9636;;;;
2023/08/10 11:21:04;;;;;;;3.2;1.7;;;;;;;24.67;59.54395;941.9171;;;;
2023/08/10 11:23:56;;;;;;;3.2;1.9;;;;;;;24.95;58.36621;941.9927;;;;
2023/08/10 11:26:26;;;;;;;1.8;1.6;;;;;;;25.49;56.56934;941.9641;;;;
2023/08/10 11:28:51;;;;;;;2.5;1.8;;;;;;;25.78;54.47949;941.8755;;;;
2023/08/10 11:31:17;;;;;;;2.6;1.7;;;;;;;25.74;56.23535;941.8344;;;;
2023/08/10 11:33:41;;;;;;;2.5;2.1;;;;;;;26.29;53.73535;941.7927;;;;
2023/08/10 11:36:06;;;;;;;2.1;1.7;;;;;;;26.02;55.73828;941.7511;;;;
2023/08/10 11:38:31;;;;;;;2.2;1.7;;;;;;;25.99;54.72949;941.7425;;;;
2023/08/10 11:40:59;;;;;;;2.4;1.7;;;;;;;25.91;57.0957;941.7405;;;;
2023/08/10 11:43:25;;;;;;;2.1;1.8;;;;;;;26.17;56.45508;941.6972;;;;
2023/08/10 11:45:52;;;;;;;2.7;2.1;;;;;;;26.79;53.2627;941.671;;;;
2023/08/10 11:48:19;;;;;;;2;1.7;;;;;;;25.91;55.7832;941.6703;;;;
2023/08/10 11:50:45;;;;;;;2.9;1.9;;;;;;;25.36;57.86426;941.6856;;;;
2023/08/10 11:53:10;;;;;;;2;1.8;;;;;;;25.69;59.41895;941.6716;;;;
2023/08/10 11:55:37;;;;;;;2.8;2.1;;;;;;;25.39;59.42676;941.6267;;;;
2023/08/10 11:58:02;;;;;;;3.1;1.8;;;;;;;25.76;57.62012;941.5528;;;;
2023/08/10 12:00:33;;;;;;;2.9;1.9;;;;;;;26.07;55.81543;941.5516;;;;
2023/08/10 12:02:59;;;;;;;2.5;2.1;;;;;;;26.06;56.0625;941.5061;;;;
2023/08/10 12:05:25;;;;;;;2.1;1.9;;;;;;;26.19;56.33887;941.5575;;;;
2023/08/10 12:07:49;;;;;;;3.8;2;;;;;;;24.97;59.7373;941.4908;;;;
2023/08/10 12:11:24;;;;;;;2.1;1.8;;;;;;;25.19;59.21094;941.4504;;;;
2023/08/10 12:13:34;;;;;;;4.6;2;;;;;;;27.09;53.63086;941.355;;;;
2023/08/10 12:16:00;;;;;;;3.5;1.8;;;;;;;27.24;52.80664;941.4079;;;;
2023/08/10 12:18:30;;;;;;;1.8;1.7;;;;;;;27.77;52.02637;941.4038;;;;
2023/08/10 12:20:59;;;;;;;2.2;1.7;;;;;;;27.29;54.76953;941.4105;;;;
2023/08/10 12:23:24;;;;;;;1.9;1.7;;;;;;;26.99;53.61816;941.3533;;;;
2023/08/10 12:25:50;;;;;;;2.1;1.9;;;;;;;26.75;54.47754;941.3577;;;;
2023/08/10 12:28:15;;;;;;;3.1;1.9;;;;;;;26.16;56.97363;941.3704;;;;
2023/08/10 12:30:44;;;;;;;2.4;1.9;;;;;;;25.7;59.17188;941.3718;;;;
2023/08/10 12:33:10;;;;;;;2.2;1.8;;;;;;;25.89;57.98047;941.2877;;;;
2023/08/10 12:35:36;;;;;;;1.9;1.8;;;;;;;26.04;58.09375;941.2764;;;;
2023/08/10 12:38:01;;;;;;;3.1;1.7;;;;;;;26.29;56.57617;941.3058;;;;
2023/08/10 12:40:26;;;;;;;2.2;2;;;;;;;26.41;57.07617;941.3477;;;;
2023/08/10 12:42:51;;;;;;;3.1;2;;;;;;;26.3;57.08594;941.3046;;;;
2023/08/10 12:45:17;;;;;;;3.2;2;;;;;;;25.59;58.46094;941.3091;;;;
2023/08/10 12:47:47;;;;;;;2;1.8;;;;;;;24.88;58.89941;941.4031;;;;
2023/08/10 12:50:18;;;;;;;2.3;1.7;;;;;;;24.71;59.97363;941.3521;;;;
2023/08/10 12:52:47;;;;;;;3.8;1.9;;;;;;;24.41;61.80664;941.3218;;;;
2023/08/10 12:55:12;;;;;;;3.3;2.1;;;;;;;24.92;58.49121;941.2477;;;;
2023/08/10 12:57:40;;;;;;;2.1;1.9;;;;;;;25.38;57.08789;941.2575;;;;
2023/08/10 13:00:13;;;;;;;3.4;2;;;;;;;24.84;59.97949;941.3942;;;;
2023/08/10 13:02:37;;;;;;;2.8;1.9;;;;;;;24.23;61.68652;941.2706;;;;
2023/08/10 13:05:02;;;;;;;2.6;1.8;;;;;;;24.13;61.94531;941.3864;;;;
2023/08/10 13:07:29;;;;;;;4.5;2.3;;;;;;;24.21;62.50977;941.3777;;;;
2023/08/10 13:09:54;;;;;;;2.1;1.9;;;;;;;23.99;62.2666;941.4208;;;;
2023/08/10 13:12:20;;;;;;;2.3;1.8;;;;;;;23.53;65.84863;941.3505;;;;
2023/08/10 13:14:45;;;;;;;1.9;1.6;;;;;;;23.92;64.3877;941.4153;;;;
2023/08/10 13:17:10;;;;;;;2.6;1.7;;;;;;;24.18;61.80957;941.4003;;;;
2023/08/10 13:19:36;;;;;;;2.7;1.8;;;;;;;24.14;60.43848;941.4659;;;;
2023/08/10 13:22:01;;;;;;;2.5;2;;;;;;;24.38;61.00098;941.4232;;;;
2023/08/10 13:24:28;;;;;;;2.7;1.8;;;;;;;24.52;61.83398;941.4138;;;;
2023/08/10 13:26:53;;;;;;;2.4;1.7;;;;;;;24.86;59.52246;941.4016;;;;
2023/08/10 13:29:19;;;;;;;1.8;1.7;;;;;;;24.65;60.84961;941.4204;;;;
2023/08/10 13:31:44;;;;;;;2.1;1.8;;;;;;;24.53;59.22852;941.4063;;;;
2023/08/10 13:34:12;;;;;;;2.8;1.9;;;;;;;24.68;59.83984;941.4345;;;;
2023/08/10 13:36:38;;;;;;;2.1;1.8;;;;;;;24.54;59.86816;941.4562;;;;
2023/08/10 13:39:03;;;;;;;2.3;1.9;;;;;;;24.72;57.34473;941.5128;;;;
2023/08/10 13:41:28;;;;;;;2;1.8;;;;;;;24.76;57.37305;941.4927;;;;
2023/08/10 13:43:54;;;;;;;3.1;1.9;;;;;;;24.73;58.27734;941.4578;;;;
2023/08/10 13:46:19;;;;;;;2.3;1.7;;;;;;;24.28;60.97559;941.4373;;;;
2023/08/10 13:48:46;;;;;;;3;1.6;;;;;;;24.07;62.43066;941.3978;;;;
2023/08/10 13:51:12;;;;;;;3.2;2.3;;;;;;;24.39;59.10645;941.4326;;;;
2023/08/10 13:53:38;;;;;;;2.1;1.9;;;;;;;24.4;58.66992;941.411;;;;
2023/08/10 13:56:03;;;;;;;2.5;2;;;;;;;24.33;59.13281;941.4708;;;;
2023/08/10 13:58:29;;;;;;;3.2;1.9;;;;;;;24.56;59.44629;941.4263;;;;
2023/08/10 14:00:55;;;;;;;2.6;1.9;;;;;;;24.88;58.79297;941.4063;;;;
2023/08/10 14:03:21;;;;;;;2.3;1.8;;;;;;;25.05;57.28027;941.3718;;;;
2023/08/10 14:05:47;;;;;;;2.2;1.8;;;;;;;25.07;58.3457;941.4026;;;;
2023/08/10 14:08:15;;;;;;;2.6;2;;;;;;;25.03;57.45508;941.3731;;;;
2023/08/10 14:10:40;;;;;;;3.2;2.1;;;;;;;25.04;57.44531;941.3711;;;;
2023/08/10 14:13:05;;;;;;;2.5;2;;;;;;;24.96;60.13574;941.3936;;;;
2023/08/10 14:15:34;;;;;;;2.2;1.7;;;;;;;24.96;60.125;941.3787;;;;
2023/08/10 14:18:04;;;;;;;2.5;1.9;;;;;;;25.09;57.67578;941.3154;;;;
2023/08/10 14:20:31;;;;;;;1.9;1.7;;;;;;;25.2;56.47363;941.2236;;;;
2023/08/10 14:22:56;;;;;;;2.6;1.8;;;;;;;25.41;56.90137;941.2319;;;;
2023/08/10 14:25:25;;;;;;;2.4;1.9;;;;;;;25.5;55.75684;941.2713;;;;
2023/08/10 14:30:28;;;;;;;2.2;2;;;;;;;24.8;58.80566;941.3614;;;;
2023/08/10 14:32:53;;;;;;;1.8;1.7;;;;;;;24.82;59.55176;941.3851;;;;
2023/08/10 14:35:21;;;;;;;2.3;1.8;;;;;;;24.66;59.22461;941.4174;;;;
2023/08/10 14:37:46;;;;;;;3.5;2.3;;;;;;;24.48;59.25781;941.4132;;;;
2023/08/10 14:40:17;;;;;;;2.8;2.2;;;;;;;24.5;59.36816;941.4269;;;;
2023/08/10 14:46:21;;;;;;;2.6;1.8;;;;;;;24.38;58.97559;941.4067;;;;
2023/08/10 14:48:46;;;;;;;2;1.8;;;;;;;24.45;59.99707;941.4005;;;;
2023/08/10 14:51:11;;;;;;;3.3;1.9;;;;;;;24.47;58.96289;941.4769;;;;
2023/08/10 14:53:38;;;;;;;2.3;2.1;;;;;;;24.35;59.08789;941.4716;;;;
2023/08/10 14:56:03;;;;;;;2.5;2.1;;;;;;;24.48;60.21289;941.4914;;;;
2023/08/10 14:58:32;;;;;;;1.7;1.6;;;;;;;24.3;59.91797;941.4931;;;;
2023/08/10 15:00:57;;;;;;;2.4;1.8;;;;;;;24.07;62.16992;941.4272;;;;
2023/08/10 15:03:24;;;;;;;2.2;1.8;;;;;;;24.02;61.81055;941.415;;;;
2023/08/10 15:05:49;;;;;;;2.3;1.9;;;;;;;23.94;60.68164;941.409;;;;
2023/08/10 15:08:14;;;;;;;2.4;1.8;;;;;;;23.88;60.73242;941.4885;;;;
2023/08/10 15:10:41;;;;;;;2.1;1.8;;;;;;;23.81;60.67578;941.5435;;;;
2023/08/10 15:13:06;;;;;;;3.6;1.9;;;;;;;23.84;60.30273;941.5283;;;;
2023/08/10 15:15:35;;;;;;;3.1;2;;;;;;;23.8;61.58203;941.4919;;;;
2023/08/10 15:18:06;;;;;;;3;2.1;;;;;;;23.91;60.93652;941.4817;;;;
2023/08/10 15:20:37;;;;;;;3;2;;;;;;;23.79;60.80273;941.5345;;;;
2023/08/10 15:23:07;;;;;;;3.3;1.8;;;;;;;23.79;60.65137;941.5189;;;;
2023/08/10 15:25:35;;;;;;;2.1;1.9;;;;;;;23.69;61.63477;941.4506;;;;
2023/08/10 15:28:00;;;;;;;2;1.8;;;;;;;23.52;62.95313;941.4478;;;;
2023/08/10 15:30:26;;;;;;;2.9;1.9;;;;;;;23.62;61.39258;941.454;;;;
2023/08/10 15:32:51;;;;;;;2.2;1.9;;;;;;;23.61;61.42676;941.43;;;;
2023/08/10 15:35:19;;;;;;;2.7;2.1;;;;;;;23.74;61.51465;941.4291;;;;
2023/08/10 15:37:43;;;;;;;3;2.1;;;;;;;23.82;61.43164;941.4333;;;;
2023/08/10 15:40:12;;;;;;;2.9;1.7;;;;;;;23.73;61.32324;941.4342;;;;
2023/08/10 15:42:35;;;;;;;2.8;2.2;;;;;;;23.62;61.45117;941.5223;;;;
2023/08/10 15:45:01;;;;;;;2.7;2.1;;;;;;;23.47;61.38281;941.4877;;;;
2023/08/10 15:47:26;;;;;;;3.8;2;;;;;;;23.48;61.77246;941.5336;;;;
2023/08/10 15:49:51;;;;;;;4.1;1.8;;;;;;;23.32;63.19531;941.4886;;;;